Forest Park, Georgia
Current Conditions -  °F | °C
As of 10:52 AM on Tuesday 21 Oct 2014 (Local Time) from KATL Reporting Station
Clear Clear  
Wind Chill: 65°   Ceiling: Unl
Heat Index: 65°   Visibility: 10mi
Dew Point: 52°   Wind: 8mph
Humidity: 63%   Direction: 310°NW
Pressure: 30.04"   Gusts: NA
Location:  33.62°N, 84.36°W
Report Text: KATL 211452Z 31007KT 10SM CLR 18/11 A3004 RMK AO2 SLP168 T01830111 51008
Loading
Personal Weather Stations






























Interactive Weather Map
Tropical Storm Tracking
New forecast layout! Learn more

10-Day Weather Forecast

Advertisements
Track Severe Weather on mobile